createdAt,value
2023-02-14T00:04:45.286Z,8.87
2023-02-14T00:09:54.274Z,8.35
2023-02-14T00:15:18.934Z,8.68
2023-02-14T00:20:34.237Z,8.66
2023-02-14T00:25:42.149Z,8.41
2023-02-14T00:30:52.287Z,8.47
2023-02-14T00:36:08.458Z,8.43
2023-02-14T00:41:20.830Z,8.46
2023-02-14T00:46:34.348Z,8.59
2023-02-14T00:51:39.967Z,8.31
2023-02-14T00:56:43.054Z,8.35
2023-02-14T01:01:45.851Z,8.26
2023-02-14T01:06:50.144Z,8.20
2023-02-14T01:11:53.085Z,8.19
2023-02-14T01:16:56.272Z,8.08
2023-02-14T01:22:04.133Z,7.71
2023-02-14T01:27:06.960Z,7.99
2023-02-14T01:32:10.603Z,8.04
2023-02-14T01:37:17.098Z,8.06
2023-02-14T01:42:20.192Z,8.06
2023-02-14T01:47:23.926Z,7.99
2023-02-14T01:52:35.943Z,8.10
2023-02-14T01:57:47.526Z,8.32
2023-02-14T02:02:50.970Z,7.96
2023-02-14T02:08:02.386Z,8.09
2023-02-14T02:13:08.571Z,8.05
2023-02-14T02:18:17.538Z,8.18
2023-02-14T02:24:05.398Z,7.85
2023-02-14T02:29:48.131Z,7.65
2023-02-14T02:35:23.702Z,7.86
2023-02-14T02:40:43.724Z,8.07
2023-02-14T02:46:09.650Z,8.15
2023-02-14T02:51:41.528Z,7.86
2023-02-14T02:56:53.522Z,8.02
2023-02-14T03:02:02.378Z,8.11
2023-02-14T03:07:27.828Z,8.07
2023-02-14T03:13:11.864Z,7.88
2023-02-14T03:18:25.836Z,7.98
2023-02-14T03:23:36.062Z,7.78
2023-02-14T03:28:47.256Z,7.59
2023-02-14T03:33:58.358Z,7.54
2023-02-14T03:39:08.631Z,7.45
2023-02-14T03:44:18.293Z,7.70
2023-02-14T03:49:24.913Z,7.54
2023-02-14T03:54:32.494Z,7.55
2023-02-14T03:59:36.412Z,7.41
2023-02-14T04:04:44.276Z,7.56
2023-02-14T04:09:48.736Z,7.46
2023-02-14T04:14:51.514Z,7.60
2023-02-14T04:19:54.511Z,7.46
2023-02-14T04:24:59.000Z,7.32
2023-02-14T04:30:01.819Z,7.21
2023-02-14T04:35:07.638Z,7.21
2023-02-14T04:40:17.046Z,7.20
2023-02-14T04:45:20.214Z,7.53
2023-02-14T04:50:25.842Z,7.71
2023-02-14T04:55:30.143Z,7.74
2023-02-14T05:00:32.972Z,7.75
2023-02-14T05:05:35.769Z,7.87
2023-02-14T05:10:41.044Z,7.77
2023-02-14T05:15:45.504Z,7.49
2023-02-14T05:20:50.506Z,7.63
2023-02-14T05:25:54.639Z,7.82
2023-02-14T05:30:58.899Z,8.06
2023-02-14T05:36:02.704Z,8.00
2023-02-14T05:41:07.324Z,7.66
2023-02-14T05:46:10.297Z,7.68
2023-02-14T05:51:13.387Z,7.58
2023-02-14T05:56:17.696Z,7.79
2023-02-14T06:01:20.567Z,7.89
2023-02-14T06:06:23.820Z,7.71
2023-02-14T06:11:28.040Z,7.64
2023-02-14T06:16:30.929Z,7.69
2023-02-14T06:21:33.712Z,7.69
2023-02-14T06:26:37.933Z,7.80
2023-02-14T06:31:40.834Z,7.73
2023-02-14T06:36:43.816Z,7.76
2023-02-14T06:41:48.507Z,7.77
2023-02-14T06:46:51.384Z,7.86
2023-02-14T06:51:54.121Z,7.92
2023-02-14T06:56:58.461Z,8.31
2023-02-14T07:02:01.299Z,8.33
2023-02-14T07:07:04.446Z,7.91
2023-02-14T07:12:08.852Z,8.09
2023-02-14T07:17:11.649Z,7.87
2023-02-14T07:22:14.519Z,8.28
2023-02-14T07:27:18.705Z,8.05
2023-02-14T07:32:21.525Z,8.27
2023-02-14T07:37:24.542Z,8.30
2023-02-14T07:42:29.308Z,8.83
2023-02-14T07:47:32.139Z,8.61
2023-02-14T07:52:34.902Z,8.86
2023-02-14T07:57:39.390Z,8.94
2023-02-14T08:02:42.316Z,9.17
2023-02-14T08:07:45.276Z,9.33
2023-02-14T08:13:01.233Z,8.90
2023-02-14T08:18:03.976Z,8.84
2023-02-14T08:23:06.808Z,8.93
2023-02-14T08:28:10.940Z,8.77
2023-02-14T08:33:13.712Z,8.91
2023-02-14T08:38:16.583Z,9.19
2023-02-14T08:43:21.000Z,9.11
2023-02-14T08:48:25.242Z,9.08
2023-02-14T08:53:28.081Z,9.11
2023-02-14T08:58:32.866Z,9.25
2023-02-14T09:03:38.270Z,9.40
2023-02-14T09:08:41.574Z,9.45
2023-02-14T09:13:46.305Z,9.29
2023-02-14T09:18:49.766Z,9.17
2023-02-14T09:23:52.757Z,9.20
2023-02-14T09:28:57.657Z,9.20
2023-02-14T09:34:17.818Z,9.27
2023-02-14T09:39:20.618Z,9.40
2023-02-14T09:44:31.477Z,9.56
2023-02-14T09:49:39.616Z,9.69
2023-02-14T09:54:44.715Z,9.55
2023-02-14T09:59:54.330Z,9.69
2023-02-14T10:05:06.787Z,9.63
2023-02-14T10:10:15.133Z,9.50
2023-02-14T10:15:23.088Z,9.71
2023-02-14T10:20:31.187Z,9.28
2023-02-14T10:25:42.008Z,9.78
2023-02-14T10:31:00.228Z,9.80
2023-02-14T10:36:07.247Z,9.97
2023-02-14T10:41:29.469Z,10.09
2023-02-14T10:46:42.320Z,10.23
2023-02-14T10:51:50.416Z,10.28
2023-02-14T10:56:58.544Z,10.25
2023-02-14T11:02:03.398Z,10.42
2023-02-14T11:07:13.692Z,10.61
2023-02-14T11:12:38.503Z,10.54
2023-02-14T11:17:43.433Z,10.70
2023-02-14T11:22:46.997Z,10.27
2023-02-14T11:27:52.726Z,10.43
2023-02-14T11:32:57.434Z,10.63
2023-02-14T11:38:01.733Z,10.38
2023-02-14T11:43:20.246Z,10.08
2023-02-14T11:48:37.139Z,10.25
2023-02-14T11:53:47.107Z,10.43
2023-02-14T11:58:55.258Z,10.53
2023-02-14T12:04:04.074Z,10.76
2023-02-14T12:09:24.919Z,10.63
2023-02-14T12:14:30.070Z,10.75
2023-02-14T12:19:39.184Z,10.74
2023-02-14T12:24:50.906Z,11.04
2023-02-14T12:29:59.257Z,10.82
2023-02-14T12:35:14.430Z,11.30
2023-02-14T12:40:23.870Z,10.88
2023-02-14T12:45:44.629Z,11.10
2023-02-14T12:50:55.270Z,10.84
2023-02-14T12:56:06.619Z,10.89
2023-02-14T13:01:39.076Z,11.09
2023-02-14T13:06:49.300Z,10.86
2023-02-14T13:12:02.587Z,10.91
2023-02-14T13:17:12.897Z,10.96
2023-02-14T13:22:20.128Z,10.85
2023-02-14T13:27:25.504Z,11.02
2023-02-14T13:32:33.328Z,11.24
2023-02-14T13:37:38.179Z,11.38
2023-02-14T13:42:55.463Z,11.45
2023-02-14T13:48:05.604Z,11.38
2023-02-14T13:53:13.843Z,11.35
2023-02-14T13:58:21.655Z,11.31
2023-02-14T14:03:57.289Z,11.55
2023-02-14T14:09:01.701Z,11.37
2023-02-14T14:14:26.258Z,11.48
2023-02-14T14:19:39.758Z,11.53
2023-02-14T14:24:53.510Z,11.69
2023-02-14T14:29:58.525Z,11.47
2023-02-14T14:35:03.760Z,11.46
2023-02-14T14:40:09.579Z,11.39
2023-02-14T14:45:23.844Z,11.50
2023-02-14T14:50:29.723Z,11.68
2023-02-14T14:55:37.537Z,11.24
2023-02-14T15:00:42.462Z,11.41
2023-02-14T15:05:47.256Z,11.30
2023-02-14T15:10:55.736Z,11.07
2023-02-14T15:15:59.413Z,11.32
2023-02-14T15:21:04.495Z,11.12
2023-02-14T15:26:16.924Z,11.27
2023-02-14T15:31:20.143Z,11.36
2023-02-14T15:36:25.494Z,11.07
2023-02-14T15:41:29.601Z,11.19
2023-02-14T15:46:36.558Z,11.02
2023-02-14T15:51:40.615Z,11.07
2023-02-14T15:56:48.857Z,11.14
2023-02-14T16:01:54.489Z,10.88
2023-02-14T16:07:07.147Z,10.79
2023-02-14T16:12:30.869Z,10.75
2023-02-14T16:17:35.505Z,10.80
2023-02-14T16:22:38.353Z,10.52
2023-02-14T16:27:42.522Z,10.40
2023-02-14T16:32:50.726Z,10.20
2023-02-14T16:37:53.999Z,10.24
2023-02-14T16:42:59.137Z,10.34
2023-02-14T16:48:02.240Z,10.28
2023-02-14T16:53:07.054Z,10.35
2023-02-14T16:58:11.205Z,10.17
2023-02-14T17:03:13.932Z,10.17
2023-02-14T17:08:17.309Z,9.91
2023-02-14T17:13:24.789Z,9.84
2023-02-14T17:18:27.600Z,10.01
2023-02-14T17:23:30.333Z,10.00
2023-02-14T17:28:34.472Z,9.99
2023-02-14T17:33:37.271Z,9.90
2023-02-14T17:38:40.473Z,9.80
2023-02-14T17:43:44.616Z,10.02
2023-02-14T17:48:48.878Z,9.89
2023-02-14T17:53:52.200Z,9.52
2023-02-14T17:58:56.771Z,9.59
2023-02-14T18:03:59.787Z,9.49
2023-02-14T18:09:06.749Z,9.45
2023-02-14T18:14:11.157Z,9.40
2023-02-14T18:19:15.906Z,9.21
2023-02-14T18:24:18.706Z,9.11
2023-02-14T18:29:22.920Z,9.16
2023-02-14T18:34:25.787Z,9.23
2023-02-14T18:39:28.637Z,9.15
2023-02-14T18:44:33.417Z,9.04
2023-02-14T18:49:36.208Z,8.98
2023-02-14T18:54:39.624Z,9.13
2023-02-14T18:59:45.104Z,8.95
2023-02-14T19:04:47.956Z,8.97
2023-02-14T19:09:50.717Z,8.86
2023-02-14T19:14:56.115Z,8.80
2023-02-14T19:19:59.753Z,8.68
2023-02-14T19:25:02.537Z,8.59
2023-02-14T19:30:08.385Z,8.45
2023-02-14T19:35:11.811Z,8.44
2023-02-14T19:40:15.244Z,8.37
2023-02-14T19:45:19.766Z,8.31
2023-02-14T19:50:22.564Z,8.10
2023-02-14T19:55:27.570Z,8.18
2023-02-14T20:00:31.743Z,8.00
2023-02-14T20:05:38.237Z,7.99
2023-02-14T20:10:41.165Z,8.17
2023-02-14T20:15:45.651Z,8.22
2023-02-14T20:21:11.528Z,8.05
2023-02-14T20:26:15.853Z,7.95
2023-02-14T20:31:22.836Z,8.11
2023-02-14T20:36:27.104Z,7.84
2023-02-14T20:41:34.329Z,7.90
2023-02-14T20:46:38.981Z,7.80
2023-02-14T20:51:42.178Z,7.48
2023-02-14T20:56:45.312Z,7.67
2023-02-14T21:01:49.525Z,7.29
2023-02-14T21:06:52.330Z,7.36
2023-02-14T21:11:55.164Z,7.24
2023-02-14T21:16:59.309Z,7.38
2023-02-14T21:22:02.128Z,7.25
2023-02-14T21:27:05.093Z,7.36
2023-02-14T21:32:09.520Z,7.22
2023-02-14T21:37:12.991Z,7.22
2023-02-14T21:42:17.182Z,6.71
2023-02-14T21:47:21.307Z,6.71
2023-02-14T21:52:24.196Z,6.92
2023-02-14T21:57:27.039Z,6.99
2023-02-14T22:02:31.127Z,6.54
2023-02-14T22:07:33.948Z,6.62
2023-02-14T22:12:36.739Z,6.68
2023-02-14T22:17:40.853Z,6.63
2023-02-14T22:22:43.575Z,6.63
2023-02-14T22:27:46.314Z,6.69
2023-02-14T22:32:50.561Z,6.63
2023-02-14T22:37:53.560Z,6.33
2023-02-14T22:42:58.019Z,6.62
2023-02-14T22:48:02.117Z,6.48
2023-02-14T22:53:04.911Z,6.68
2023-02-14T22:58:09.088Z,6.55
2023-02-14T23:03:13.386Z,6.52
2023-02-14T23:08:16.419Z,6.07
2023-02-14T23:13:36.898Z,6.04
2023-02-14T23:18:58.497Z,6.03
2023-02-14T23:24:01.292Z,5.98
2023-02-14T23:29:04.298Z,6.21
2023-02-14T23:34:08.476Z,5.92
2023-02-14T23:39:11.541Z,6.26
2023-02-14T23:44:14.407Z,6.56
2023-02-14T23:49:18.756Z,6.01
2023-02-14T23:54:23.595Z,6.40
2023-02-14T23:59:26.325Z,6.59
